Time;durP1;ratioP1;P1;durP2;ratioP2;P2;SDS_P1;SDS_P2;PMS_P1;PMS_P2;Temp;Humidity;BMP_temperature;BMP_pressure;BME280_temperature;BME280_humidity;BME280_pressure;Samples;Min_cycle;Max_cycle;Signal;HPM_P1;HPM_P2
2022/06/02 00:00:15;;;;;;;14.30;6.53;;;22.00;99.90;;;;;;4879592;29;20060;-78
2022/06/02 00:03:00;;;;;;;188.48;112.05;;;22.00;99.90;;;;;;4905852;29;20092;-78
2022/06/02 00:05:50;;;;;;;37.88;22.55;;;22.00;99.90;;;;;;4872932;29;20143;-80
2022/06/02 00:08:36;;;;;;;17.35;7.22;;;21.70;99.90;;;;;;4881019;29;20045;-80
2022/06/02 00:11:16;;;;;;;15.60;7.38;;;21.70;99.90;;;;;;4849264;29;20076;-80
2022/06/02 00:13:44;;;;;;;15.40;5.15;;;21.60;99.90;;;;;;4864283;29;20064;-82
2022/06/02 00:16:18;;;;;;;16.60;6.35;;;21.70;99.90;;;;;;4864569;29;20069;-78
2022/06/02 00:18:51;;;;;;;12.90;5.75;;;21.80;99.90;;;;;;4863893;29;20572;-79
2022/06/02 00:21:24;;;;;;;24.52;7.40;;;21.70;99.90;;;;;;4894913;29;20053;-82
2022/06/02 00:24:00;;;;;;;22.20;7.10;;;21.70;99.90;;;;;;4864204;29;20602;-82
2022/06/02 00:26:35;;;;;;;16.85;5.78;;;21.60;99.90;;;;;;4864310;29;20223;-82
2022/06/02 00:29:30;;;;;;;16.60;5.18;;;21.60;99.90;;;;;;4864165;29;20139;-79
2022/06/02 00:32:22;;;;;;;17.85;6.57;;;21.40;99.90;;;;;;4895189;29;20057;-76
2022/06/02 00:35:10;;;;;;;13.73;5.50;;;21.60;99.90;;;;;;4880572;29;20055;-78
2022/06/02 00:38:06;;;;;;;14.23;5.60;;;21.70;99.90;;;;;;4879882;29;20523;-79
2022/06/02 00:40:35;;;;;;;14.23;5.50;;;21.60;99.90;;;;;;4863102;29;20144;-83
2022/06/02 00:43:05;;;;;;;14.15;5.25;;;21.50;99.90;;;;;;4894993;29;20512;-85
2022/06/02 00:45:33;;;;;;;17.42;4.85;;;21.50;99.90;;;;;;4880225;29;20053;-84
2022/06/02 00:48:19;;;;;;;20.65;4.88;;;21.60;99.90;;;;;;4879424;29;20053;-85
2022/06/02 00:51:04;;;;;;;12.43;5.25;;;21.60;99.90;;;;;;4880267;29;20093;-82
2022/06/02 00:57:30;;;;;;;16.55;5.53;;;21.50;99.90;;;;;;4863551;29;20041;-86
2022/06/02 01:00:07;;;;;;;11.82;4.60;;;21.60;99.90;;;;;;4875676;29;20485;-84
2022/06/02 01:02:48;;;;;;;21.15;10.95;;;21.60;99.90;;;;;;4899079;29;20044;-86
2022/06/02 01:05:29;;;;;;;68.68;38.88;;;21.40;99.90;;;;;;4898666;29;20041;-78
2022/06/02 01:08:15;;;;;;;;;;;21.30;99.90;;;;;;4867010;29;20052;-87
2022/06/02 01:10:57;;;;;;;18.40;6.57;;;21.30;99.90;;;;;;4897393;29;19923;-77
2022/06/02 01:13:40;;;;;;;15.40;4.93;;;21.40;99.90;;;;;;4881663;29;20052;-77
2022/06/02 01:16:32;;;;;;;17.20;4.93;;;21.40;99.90;;;;;;4897740;29;20041;-81
2022/06/02 01:19:02;;;;;;;17.88;4.93;;;21.20;99.90;;;;;;4898054;29;20055;-82
2022/06/02 01:22:06;;;;;;;18.00;4.95;;;21.00;99.90;;;;;;4881266;29;20045;-81
2022/06/02 01:25:09;;;;;;;12.95;4.72;;;21.00;99.90;;;;;;4881262;29;20412;-80
2022/06/02 01:28:14;;;;;;;11.00;4.63;;;21.00;99.90;;;;;;4869446;29;20056;-80
2022/06/02 01:31:10;;;;;;;10.23;4.13;;;21.00;99.90;;;;;;4895826;29;20458;-80
2022/06/02 01:34:09;;;;;;;12.70;4.93;;;21.10;99.90;;;;;;4866003;29;20092;-79
2022/06/02 01:37:05;;;;;;;11.63;4.45;;;21.00;99.90;;;;;;4881066;29;20488;-79
2022/06/02 01:40:09;;;;;;;15.52;4.95;;;21.10;99.90;;;;;;4881559;29;20535;-75
2022/06/02 01:42:48;;;;;;;11.65;5.20;;;21.10;99.90;;;;;;4897871;29;20041;-74
2022/06/02 01:45:28;;;;;;;14.30;5.18;;;20.90;99.90;;;;;;4881268;29;20575;-76
2022/06/02 01:48:12;;;;;;;12.48;6.28;;;20.80;99.90;;;;;;4879715;29;20508;-78
2022/06/02 01:50:54;;;;;;;16.60;5.18;;;20.90;99.90;;;;;;4897572;29;20048;-77
2022/06/02 01:53:36;;;;;;;17.95;5.47;;;20.80;99.90;;;;;;4897716;29;20045;-79
2022/06/02 01:56:25;;;;;;;16.77;5.47;;;20.90;99.90;;;;;;4896677;29;20132;-78
2022/06/02 01:59:20;;;;;;;11.38;5.18;;;20.80;99.90;;;;;;4865975;29;20060;-78
2022/06/02 02:02:25;;;;;;;15.23;5.22;;;20.90;99.90;;;;;;4880896;29;20105;-78
2022/06/02 02:05:02;;;;;;;9.40;4.45;;;20.70;99.90;;;;;;4859531;29;20056;-74
2022/06/02 02:07:50;;;;;;;15.10;5.28;;;20.70;99.90;;;;;;4896930;29;20048;-76
2022/06/02 02:10:24;;;;;;;13.48;5.20;;;20.80;99.90;;;;;;4865648;29;20057;-77
2022/06/02 02:13:16;;;;;;;14.88;5.20;;;20.80;99.90;;;;;;4897283;29;20055;-79
2022/06/02 02:15:58;;;;;;;12.18;4.97;;;20.70;99.90;;;;;;4865090;29;20332;-77
2022/06/02 02:18:51;;;;;;;11.57;4.75;;;20.70;99.90;;;;;;4897003;29;20484;-78
2022/06/02 02:21:43;;;;;;;12.45;4.97;;;20.70;99.90;;;;;;4880077;29;20467;-79
2022/06/02 02:24:35;;;;;;;13.55;5.00;;;20.40;99.90;;;;;;4880603;29;20108;-79
2022/06/02 02:27:27;;;;;;;9.60;4.45;;;20.20;99.90;;;;;;4896729;29;20092;-79
2022/06/02 02:29:54;;;;;;;12.32;4.22;;;20.40;99.90;;;;;;4887448;29;20067;-79
2022/06/02 02:32:24;;;;;;;12.00;4.38;;;20.50;99.90;;;;;;4864968;29;20081;-80
2022/06/02 02:35:14;;;;;;;12.57;4.50;;;20.50;99.90;;;;;;4896898;29;20112;-79
2022/06/02 02:38:13;;;;;;;9.50;4.68;;;20.10;99.90;;;;;;4880200;29;20089;-77
2022/06/02 02:40:44;;;;;;;16.52;4.65;;;20.30;99.90;;;;;;4885862;29;20064;-75
2022/06/02 02:43:33;;;;;;;8.70;4.32;;;20.20;99.90;;;;;;4880285;29;20068;-75
2022/06/02 02:46:23;;;;;;;15.65;4.25;;;20.30;99.90;;;;;;4896559;29;20050;-80
2022/06/02 02:48:55;;;;;;;11.00;4.47;;;20.30;99.90;;;;;;4879887;29;20052;-75
2022/06/02 02:51:31;;;;;;;11.55;4.63;;;20.30;99.90;;;;;;4897018;29;20056;-81
2022/06/02 02:54:04;;;;;;;13.63;4.25;;;20.20;99.90;;;;;;4879994;29;20056;-79
2022/06/02 02:56:40;;;;;;;14.13;4.80;;;20.30;99.90;;;;;;4896631;29;20048;-78
2022/06/02 02:59:38;;;;;;;11.25;4.13;;;20.30;99.90;;;;;;4896347;29;20124;-75
2022/06/02 03:02:15;;;;;;;10.77;4.32;;;20.20;99.90;;;;;;4880010;29;20052;-74
2022/06/02 03:05:13;;;;;;;17.17;4.82;;;20.20;99.90;;;;;;4879822;29;20048;-79
2022/06/02 03:07:40;;;;;;;16.05;4.57;;;20.30;99.90;;;;;;4895993;29;20076;-76
2022/06/02 03:10:17;;;;;;;13.18;4.65;;;20.10;99.90;;;;;;4896596;29;20119;-79
2022/06/02 03:13:03;;;;;;;11.25;4.35;;;20.20;99.90;;;;;;4879626;29;20124;-78
2022/06/02 03:15:37;;;;;;;15.23;5.95;;;20.20;99.90;;;;;;4879628;29;20127;-77
2022/06/02 03:18:16;;;;;;;14.20;4.97;;;20.20;99.90;;;;;;4896109;29;20092;-81
2022/06/02 03:21:21;;;;;;;9.15;4.35;;;20.30;99.90;;;;;;4896376;29;20057;-82
2022/06/02 03:24:19;;;;;;;12.60;4.45;;;20.30;99.90;;;;;;4879595;29;20127;-75
2022/06/02 03:27:21;;;;;;;15.73;4.35;;;20.00;99.90;;;;;;4895904;29;20464;-79
2022/06/02 03:30:02;;;;;;;11.20;4.20;;;19.90;99.90;;;;;;4861487;29;20063;-76
2022/06/02 03:32:41;;;;;;;9.45;4.75;;;19.90;99.90;;;;;;4896038;29;20053;-81
2022/06/02 03:35:40;;;;;;;11.73;4.90;;;20.00;99.90;;;;;;4896218;29;20104;-75
2022/06/02 03:38:44;;;;;;;8.13;3.97;;;20.00;99.90;;;;;;4895863;29;20052;-81
2022/06/02 03:41:59;;;;;;;16.85;4.63;;;19.90;99.90;;;;;;4896079;29;20458;-77
2022/06/02 03:44:54;;;;;;;15.98;5.05;;;19.80;99.90;;;;;;4838846;29;20045;-77
2022/06/02 03:47:53;;;;;;;14.57;4.65;;;19.90;99.90;;;;;;4895742;29;20112;-77
2022/06/02 03:50:26;;;;;;;12.10;5.45;;;20.00;99.90;;;;;;4870120;29;20076;-81
2022/06/02 03:53:19;;;;;;;12.55;5.75;;;19.90;99.90;;;;;;4895560;29;20120;-78
2022/06/02 03:56:10;;;;;;;21.77;6.20;;;19.90;99.90;;;;;;4896146;29;20408;-82
2022/06/02 03:58:37;;;;;;;14.73;5.03;;;19.80;99.90;;;;;;4879032;29;20446;-81
2022/06/02 04:01:08;;;;;;;10.15;4.68;;;19.80;99.90;;;;;;4879379;29;20145;-76
2022/06/02 04:04:23;;;;;;;13.98;5.50;;;19.80;99.90;;;;;;4895228;29;20112;-80
2022/06/02 04:07:33;;;;;;;14.27;5.85;;;19.90;99.90;;;;;;4804411;29;20129;-81
2022/06/02 04:10:25;;;;;;;9.23;4.93;;;19.90;99.90;;;;;;4801965;29;20086;-83
2022/06/02 04:16:21;;;;;;;12.68;4.75;;;20.10;99.90;;;;;;4899362;29;20044;-75
2022/06/02 04:22:15;;;;;;;15.40;5.22;;;20.00;99.90;;;;;;4899026;29;20416;-77
2022/06/02 04:24:59;;;;;;;16.67;5.40;;;19.90;99.90;;;;;;4899359;29;20068;-80
2022/06/02 04:28:19;;;;;;;17.95;6.78;;;20.00;99.90;;;;;;4898996;29;20453;-77
2022/06/02 04:31:24;;;;;;;16.20;6.22;;;20.10;99.90;;;;;;4841248;29;20100;-79
2022/06/02 04:34:25;;;;;;;11.73;5.88;;;20.20;99.90;;;;;;4840679;29;20078;-75
2022/06/02 04:37:06;;;;;;;18.15;7.63;;;20.30;99.90;;;;;;4880639;29;20080;-77
2022/06/02 04:39:55;;;;;;;14.95;6.63;;;20.30;99.90;;;;;;4881719;29;20036;-80
2022/06/02 04:42:43;;;;;;;18.98;6.95;;;20.40;99.90;;;;;;4866230;29;20052;-79
2022/06/02 04:45:32;;;;;;;67.82;37.28;;;20.50;99.90;;;;;;4898952;29;20400;-85
2022/06/02 04:48:26;;;;;;;33.75;18.05;;;20.60;99.90;;;;;;4898465;29;20424;-82
2022/06/02 04:51:10;;;;;;;37.22;21.15;;;20.50;99.90;;;;;;4880805;29;20560;-81
2022/06/02 04:53:42;;;;;;;19.38;9.38;;;20.50;99.90;;;;;;4896529;29;20037;-84
2022/06/02 04:56:32;;;;;;;12.43;5.15;;;20.50;99.90;;;;;;4897219;29;20052;-77
2022/06/02 04:59:30;;;;;;;9.18;5.18;;;19.90;99.90;;;;;;4896972;29;20068;-82
2022/06/02 05:02:01;;;;;;;22.73;4.78;;;20.10;99.90;;;;;;4911298;29;20135;-81
2022/06/02 05:04:58;;;;;;;15.30;5.53;;;20.30;99.90;;;;;;4865539;29;20068;-81
2022/06/02 05:07:48;;;;;;;15.02;7.20;;;20.60;99.90;;;;;;4881418;29;20524;-83
2022/06/02 05:10:34;;;;;;;18.07;5.90;;;20.70;99.90;;;;;;4898324;29;20694;-85
2022/06/02 05:13:10;;;;;;;13.88;5.65;;;20.80;99.90;;;;;;4898116;29;20116;-81
2022/06/02 05:16:05;;;;;;;16.88;5.53;;;20.80;99.90;;;;;;4881685;29;20068;-84
2022/06/02 05:19:14;;;;;;;67.80;41.22;;;21.00;99.90;;;;;;4897918;29;20049;-78
2022/06/02 05:22:01;;;;;;;87.13;51.95;;;20.90;99.90;;;;;;4898360;29;20088;-79
2022/06/02 05:24:37;;;;;;;98.82;60.72;;;21.00;99.90;;;;;;4897719;29;20136;-82
2022/06/02 05:27:36;;;;;;;210.23;127.68;;;21.00;99.90;;;;;;4881346;29;20120;-78
2022/06/02 05:30:09;;;;;;;37.95;22.30;;;21.00;99.90;;;;;;4894999;29;20112;-81
2022/06/02 05:32:42;;;;;;;19.13;9.90;;;21.10;99.90;;;;;;4896339;29;20087;-77
2022/06/02 05:35:15;;;;;;;20.80;11.38;;;21.00;99.90;;;;;;4896124;29;20075;-83
2022/06/02 05:37:46;;;;;;;18.73;10.13;;;21.00;99.90;;;;;;4894863;29;20080;-81
2022/06/02 05:40:16;;;;;;;17.50;6.45;;;21.00;99.90;;;;;;4895170;29;20537;-76
2022/06/02 05:42:56;;;;;;;15.93;6.38;;;21.00;99.90;;;;;;4894092;29;20120;-77
2022/06/02 05:46:14;;;;;;;17.50;6.33;;;21.00;99.90;;;;;;4871709;29;20052;-81
2022/06/02 05:48:57;;;;;;;14.73;8.20;;;21.00;99.90;;;;;;4865716;29;20042;-79
2022/06/02 05:51:48;;;;;;;16.00;7.57;;;21.20;99.90;;;;;;4895800;29;20370;-77
2022/06/02 05:54:47;;;;;;;13.18;6.10;;;21.40;99.90;;;;;;4895697;29;20112;-83
2022/06/02 05:57:35;;;;;;;17.15;7.82;;;20.90;99.90;;;;;;4895234;29;20449;-84
2022/06/02 06:00:25;;;;;;;13.80;6.25;;;21.30;99.90;;;;;;4896295;29;20124;-76
2022/06/02 06:03:04;;;;;;;14.57;5.63;;;21.60;99.90;;;;;;4896729;29;20032;-79
2022/06/02 06:05:37;;;;;;;11.88;5.32;;;21.60;99.90;;;;;;4897292;29;20382;-84
2022/06/02 06:08:30;;;;;;;15.40;5.65;;;21.40;99.90;;;;;;4880467;29;20576;-81
2022/06/02 06:11:13;;;;;;;18.70;5.70;;;21.30;99.90;;;;;;4848488;29;20056;-84
2022/06/02 06:14:01;;;;;;;17.30;5.35;;;21.10;99.90;;;;;;4897127;29;20143;-79
2022/06/02 06:16:33;;;;;;;31.63;17.33;;;21.10;99.90;;;;;;4897267;29;20530;-82
2022/06/02 06:19:09;;;;;;;84.82;59.22;;;21.40;99.90;;;;;;4896874;29;20405;-79
2022/06/02 06:22:14;;;;;;;44.47;31.20;;;21.60;99.90;;;;;;4880459;29;20097;-80
2022/06/02 06:25:10;;;;;;;17.08;7.88;;;21.80;99.90;;;;;;4897350;29;20048;-79
2022/06/02 06:28:14;;;;;;;15.13;6.43;;;22.00;99.90;;;;;;4896704;29;20057;-80
2022/06/02 06:31:07;;;;;;;16.40;6.63;;;21.90;99.90;;;;;;4896984;29;20711;-84
2022/06/02 06:33:50;;;;;;;18.83;8.23;;;22.20;99.90;;;;;;4912164;29;20044;-88
2022/06/02 06:36:48;;;;;;;16.33;6.80;;;22.30;99.90;;;;;;4867035;29;20071;-92
2022/06/02 06:39:46;;;;;;;16.83;7.25;;;22.30;99.90;;;;;;4899484;29;20100;-90
2022/06/02 06:42:42;;;;;;;19.52;6.35;;;22.40;99.90;;;;;;4898067;29;20045;-86
2022/06/02 06:45:27;;;;;;;20.65;7.63;;;22.60;99.90;;;;;;4881584;29;20139;-85
2022/06/02 06:48:14;;;;;;;24.85;7.38;;;22.60;99.90;;;;;;4881319;29;20318;-87
2022/06/02 06:50:56;;;;;;;15.45;7.28;;;22.70;99.90;;;;;;4897916;29;20113;-87
2022/06/02 06:53:49;;;;;;;19.45;7.57;;;22.80;99.90;;;;;;4881250;29;20045;-84
2022/06/02 06:56:27;;;;;;;16.45;6.60;;;22.80;99.90;;;;;;4897413;29;20045;-89
2022/06/02 06:59:15;;;;;;;18.02;6.90;;;22.70;99.90;;;;;;4896858;29;20065;-83
2022/06/02 07:01:49;;;;;;;17.88;7.13;;;22.90;99.90;;;;;;4881503;29;20033;-86
2022/06/02 07:04:54;;;;;;;16.08;6.53;;;23.10;99.90;;;;;;4880255;29;20515;-87
2022/06/02 07:07:30;;;;;;;18.48;7.53;;;23.20;99.90;;;;;;4880937;29;20377;-83
2022/06/02 07:10:13;;;;;;;16.15;7.85;;;23.00;99.90;;;;;;4911239;29;20076;-88
2022/06/02 07:13:18;;;;;;;18.17;6.57;;;23.20;99.90;;;;;;4864902;29;20433;-84
2022/06/02 07:15:59;;;;;;;17.40;6.20;;;23.20;99.90;;;;;;4880594;29;20063;-82
2022/06/02 07:19:03;;;;;;;13.48;6.57;;;23.20;99.90;;;;;;4896879;29;20385;-85
2022/06/02 07:21:52;;;;;;;11.75;6.97;;;23.30;99.90;;;;;;4824785;29;20072;-84
2022/06/02 07:24:34;;;;;;;18.98;6.90;;;23.40;99.90;;;;;;4896683;29;20048;-80
2022/06/02 07:27:10;;;;;;;21.75;7.43;;;23.30;99.90;;;;;;4896557;29;20040;-79
2022/06/02 07:30:07;;;;;;;20.70;7.18;;;23.40;99.90;;;;;;4896936;29;20390;-82
2022/06/02 07:32:44;;;;;;;20.67;6.28;;;23.40;99.90;;;;;;4871737;29;20056;-83
2022/06/02 07:35:30;;;;;;;17.55;5.72;;;23.50;99.90;;;;;;4879528;29;20064;-85
2022/06/02 07:38:24;;;;;;;12.93;4.88;;;23.60;99.90;;;;;;4865376;29;20397;-90
2022/06/02 07:41:03;;;;;;;14.63;4.75;;;23.70;99.90;;;;;;4896564;29;20057;-82
2022/06/02 07:44:27;;;;;;;22.95;5.50;;;23.80;99.90;;;;;;4897835;29;20056;-88
2022/06/02 07:50:19;;;;;;;15.05;4.57;;;24.10;99.90;;;;;;4883928;29;20044;-83
2022/06/02 07:53:12;;;;;;;14.63;4.63;;;24.10;99.90;;;;;;4897788;29;20136;-81
2022/06/02 07:56:01;;;;;;;10.43;4.63;;;24.20;99.90;;;;;;4899626;29;20052;-86
2022/06/02 07:58:47;;;;;;;11.50;3.60;;;24.20;99.90;;;;;;4900122;29;20473;-79
2022/06/02 08:01:22;;;;;;;12.75;4.22;;;24.20;99.90;;;;;;4900262;29;20068;-79
2022/06/02 08:04:10;;;;;;;16.60;4.28;;;24.20;99.90;;;;;;4883321;29;20117;-81
2022/06/02 08:06:40;;;;;;;15.00;4.15;;;24.20;99.90;;;;;;4883734;29;20073;-82
2022/06/02 08:09:17;;;;;;;16.35;4.50;;;24.20;99.90;;;;;;4899596;29;20044;-75
2022/06/02 08:12:10;;;;;;;8.88;3.42;;;24.30;99.90;;;;;;4898604;29;20045;-75
2022/06/02 08:14:52;;;;;;;12.32;3.97;;;24.10;99.90;;;;;;4898391;29;20061;-75
2022/06/02 08:17:46;;;;;;;12.82;4.15;;;24.10;99.90;;;;;;4899077;29;20044;-78
2022/06/02 08:20:26;;;;;;;9.70;4.30;;;24.20;99.90;;;;;;4861298;29;20060;-79
2022/06/02 08:23:08;;;;;;;12.38;5.32;;;24.40;99.90;;;;;;4899409;29;20048;-78
2022/06/02 08:26:24;;;;;;;10.05;3.85;;;24.50;99.90;;;;;;4882654;29;20076;-74
2022/06/02 08:29:28;;;;;;;8.80;3.45;;;24.30;99.90;;;;;;4899096;29;20044;-75
2022/06/02 08:31:55;;;;;;;9.00;3.58;;;24.40;99.90;;;;;;4899299;29;20045;-78
2022/06/02 08:34:46;;;;;;;8.65;3.20;;;24.50;99.90;;;;;;4899033;29;20045;-76
2022/06/02 08:37:40;;;;;;;9.38;3.30;;;24.30;99.90;;;;;;4897635;29;20053;-79
2022/06/02 08:40:46;;;;;;;9.13;3.78;;;24.50;99.90;;;;;;4898949;29;20075;-76
2022/06/02 08:43:42;;;;;;;12.15;3.80;;;24.60;99.90;;;;;;4881996;29;20057;-75
2022/06/02 08:46:22;;;;;;;9.40;3.70;;;24.80;99.90;;;;;;4898494;29;20047;-77
2022/06/02 08:49:14;;;;;;;8.48;3.63;;;24.70;99.90;;;;;;4898600;29;20069;-76
2022/06/02 08:52:00;;;;;;;13.52;3.60;;;25.00;99.90;;;;;;4898880;29;20433;-73
2022/06/02 08:55:03;;;;;;;9.05;3.35;;;25.10;99.90;;;;;;4898370;29;20080;-74
2022/06/02 08:58:09;;;;;;;10.35;5.35;;;25.10;99.90;;;;;;4898149;29;20044;-78
2022/06/02 09:00:48;;;;;;;12.00;3.45;;;25.30;99.90;;;;;;4898828;29;20068;-72
2022/06/02 09:03:23;;;;;;;11.88;3.90;;;25.30;99.90;;;;;;4898648;29;20441;-76
2022/06/02 09:06:14;;;;;;;11.45;4.07;;;25.30;99.90;;;;;;4898696;29;20052;-73
2022/06/02 09:09:01;;;;;;;12.27;3.85;;;25.50;99.90;;;;;;4898409;29;20040;-75
2022/06/02 09:11:53;;;;;;;7.35;4.00;;;25.30;99.90;;;;;;4898614;29;20079;-81
2022/06/02 09:15:02;;;;;;;10.70;3.45;;;25.20;99.90;;;;;;4898314;29;20580;-82
2022/06/02 09:17:39;;;;;;;10.80;4.03;;;25.30;99.90;;;;;;4836371;29;20097;-73
2022/06/02 09:20:29;;;;;;;11.20;3.33;;;25.60;98.80;;;;;;4860206;29;20106;-81
2022/06/02 09:23:10;;;;;;;12.87;3.90;;;25.70;98.90;;;;;;4861071;29;20128;-79
2022/06/02 09:26:12;;;;;;;10.63;3.75;;;25.90;99.50;;;;;;4875018;29;20344;-81
2022/06/02 09:29:04;;;;;;;13.02;4.05;;;25.90;98.70;;;;;;4859810;29;20446;-83
2022/06/02 09:31:53;;;;;;;15.23;3.60;;;25.60;98.00;;;;;;4860820;29;20121;-77
2022/06/02 09:34:46;;;;;;;11.80;3.20;;;25.60;98.90;;;;;;4859730;29;20053;-81
2022/06/02 09:37:26;;;;;;;12.68;4.57;;;25.90;98.50;;;;;;4859293;29;20123;-74
2022/06/02 09:40:11;;;;;;;9.30;3.90;;;26.10;96.30;;;;;;4859380;29;20049;-72
2022/06/02 09:42:50;;;;;;;12.52;3.92;;;26.00;97.30;;;;;;4844168;29;20285;-83
2022/06/02 09:45:44;;;;;;;6.47;3.20;;;26.10;97.20;;;;;;4844796;29;20053;-86
2022/06/02 09:49:08;;;;;;;14.02;4.05;;;26.40;99.20;;;;;;4872555;29;20047;-82
2022/06/02 09:52:04;;;;;;;13.30;3.42;;;26.60;98.40;;;;;;4860612;29;20048;-79
2022/06/02 09:54:50;;;;;;;8.07;3.17;;;26.70;97.50;;;;;;4859145;29;20104;-79
2022/06/02 09:57:57;;;;;;;8.30;3.45;;;26.90;96.90;;;;;;4858883;29;20059;-73
2022/06/02 10:00:24;;;;;;;10.20;3.28;;;26.90;95.00;;;;;;4858953;29;20410;-72
2022/06/02 10:03:19;;;;;;;14.85;3.38;;;27.30;93.20;;;;;;4859060;29;20053;-80
2022/06/02 10:06:22;;;;;;;7.95;3.45;;;27.50;93.20;;;;;;4874855;29;20062;-78
2022/06/02 10:08:58;;;;;;;7.63;3.13;;;27.30;94.50;;;;;;4843921;29;20053;-76
2022/06/02 10:11:50;;;;;;;7.03;3.47;;;27.20;92.80;;;;;;4860106;29;20045;-78
2022/06/02 10:14:36;;;;;;;9.38;3.72;;;27.30;91.60;;;;;;4859882;29;20451;-80
2022/06/02 10:17:23;;;;;;;10.57;3.90;;;27.30;91.40;;;;;;4870190;29;20100;-74
2022/06/02 10:20:10;;;;;;;8.63;3.72;;;27.50;92.40;;;;;;4879475;29;20100;-73
2022/06/02 10:22:40;;;;;;;9.60;3.50;;;27.80;92.10;;;;;;4880361;29;20086;-77
2022/06/02 10:25:28;;;;;;;;;;;28.00;90.80;;;;;;4897411;29;20063;-83
2022/06/02 10:28:16;;;;;;;10.30;2.97;;;28.10;88.20;;;;;;4897007;29;19923;-80
2022/06/02 10:30:58;;;;;;;7.70;2.95;;;28.20;84.50;;;;;;4897091;29;20077;-79
2022/06/02 10:33:55;;;;;;;8.93;2.80;;;28.00;83.20;;;;;;4879171;29;20105;-79
2022/06/02 10:37:07;;;;;;;8.20;3.45;;;28.10;84.50;;;;;;4896743;29;20075;-77
2022/06/02 10:39:49;;;;;;;7.63;3.20;;;28.30;84.60;;;;;;4868216;29;20454;-79
2022/06/02 10:42:38;;;;;;;10.13;2.90;;;28.30;83.40;;;;;;4896524;29;20426;-79
2022/06/02 10:45:43;;;;;;;8.85;2.85;;;28.20;79.00;;;;;;4896720;29;20112;-80
2022/06/02 10:48:41;;;;;;;7.82;2.90;;;28.10;80.40;;;;;;4896299;29;20045;-75
2022/06/02 10:51:16;;;;;;;8.88;3.70;;;28.30;79.90;;;;;;4897353;29;20445;-81
2022/06/02 10:54:28;;;;;;;11.02;3.63;;;28.20;78.90;;;;;;4896065;29;20453;-81
2022/06/02 10:56:57;;;;;;;6.68;2.90;;;28.50;78.00;;;;;;4861714;29;20120;-79
2022/06/02 10:59:36;;;;;;;6.68;2.72;;;28.90;77.00;;;;;;4896408;29;20044;-76
2022/06/02 11:02:31;;;;;;;4.97;2.35;;;28.90;76.30;;;;;;4879789;29;20040;-76
2022/06/02 11:05:04;;;;;;;11.32;3.10;;;28.80;76.00;;;;;;4896450;29;20049;-84
2022/06/02 11:07:34;;;;;;;10.88;3.00;;;29.00;78.30;;;;;;4896080;29;20099;-87
2022/06/02 11:10:07;;;;;;;;;;;28.80;78.80;;;;;;4895951;29;20112;-83
2022/06/02 11:12:53;;;;;;;6.85;2.50;;;29.00;75.20;;;;;;4895509;29;19967;-82
2022/06/02 11:16:06;;;;;;;12.10;3.15;;;29.10;76.50;;;;;;4893220;29;20067;-80
2022/06/02 11:19:11;;;;;;;8.15;2.42;;;29.20;75.00;;;;;;4895665;29;20040;-83
2022/06/02 11:22:07;;;;;;;6.00;2.85;;;29.30;73.50;;;;;;4899481;29;20091;-81
2022/06/02 11:25:11;;;;;;;8.50;2.58;;;29.40;72.60;;;;;;4885379;29;20045;-92
2022/06/02 11:28:15;;;;;;;8.30;2.72;;;29.50;72.80;;;;;;4878913;29;20139;-82
2022/06/02 11:31:05;;;;;;;10.13;3.95;;;29.60;73.70;;;;;;4882833;29;20050;-76
2022/06/02 11:33:42;;;;;;;8.07;2.95;;;29.80;72.60;;;;;;4869124;29;20488;-78
2022/06/02 11:36:50;;;;;;;10.27;3.13;;;30.10;72.60;;;;;;4885401;29;20070;-83
2022/06/02 11:39:31;;;;;;;11.82;3.35;;;30.00;69.60;;;;;;4900490;29;20045;-77
2022/06/02 11:42:36;;;;;;;12.48;3.05;;;29.80;70.00;;;;;;4900518;29;20071;-82
2022/06/02 11:45:27;;;;;;;6.70;2.78;;;30.00;70.60;;;;;;4901069;29;20485;-78
2022/06/02 11:48:33;;;;;;;6.75;3.00;;;30.20;69.20;;;;;;4908439;29;20044;-84
2022/06/02 11:51:09;;;;;;;10.68;3.08;;;30.40;66.50;;;;;;4851909;29;20558;-84
2022/06/02 11:53:48;;;;;;;6.65;2.63;;;30.70;67.10;;;;;;4902080;29;20045;-83
2022/06/02 11:56:27;;;;;;;10.10;2.88;;;30.80;67.40;;;;;;4902453;29;20437;-80
2022/06/02 11:59:23;;;;;;;8.55;2.92;;;30.90;68.40;;;;;;4916379;29;20040;-78
2022/06/02 12:02:01;;;;;;;9.40;3.25;;;31.10;68.00;;;;;;4899852;29;20104;-86
2022/06/02 12:04:49;;;;;;;8.32;2.90;;;31.00;68.80;;;;;;4883313;29;20089;-74
2022/06/02 12:07:22;;;;;;;11.23;3.15;;;31.00;67.60;;;;;;4900327;29;20489;-78
2022/06/02 12:10:27;;;;;;;7.97;2.72;;;31.00;68.50;;;;;;4872866;29;20488;-79
2022/06/02 12:13:12;;;;;;;10.27;3.10;;;30.80;67.50;;;;;;4900828;29;20045;-77
2022/06/02 12:16:16;;;;;;;11.15;3.92;;;31.20;68.10;;;;;;4902091;29;20060;-82
2022/06/02 12:19:06;;;;;;;13.32;4.68;;;31.30;67.10;;;;;;4901212;29;20057;-80
2022/06/02 12:21:51;;;;;;;10.18;3.20;;;31.40;66.90;;;;;;4901896;29;20467;-81
2022/06/02 12:24:40;;;;;;;13.23;3.47;;;31.80;66.30;;;;;;4901190;29;20055;-79
2022/06/02 12:27:21;;;;;;;9.63;3.43;;;31.70;66.40;;;;;;4900483;29;20075;-74
2022/06/02 12:30:12;;;;;;;11.20;3.15;;;31.90;68.90;;;;;;4901536;29;20334;-82
2022/06/02 12:33:07;;;;;;;9.73;2.90;;;31.80;67.80;;;;;;4882702;29;20378;-75
2022/06/02 12:35:58;;;;;;;7.72;4.20;;;32.10;67.60;;;;;;4882348;29;20136;-79
2022/06/02 12:38:32;;;;;;;14.05;3.22;;;31.80;65.90;;;;;;4898625;29;20453;-84
2022/06/02 12:41:15;;;;;;;7.43;2.90;;;31.70;66.80;;;;;;4898167;29;20408;-83
2022/06/02 12:44:07;;;;;;;7.78;3.28;;;31.60;68.10;;;;;;4898736;29;20044;-85
2022/06/02 12:46:40;;;;;;;11.52;3.20;;;31.60;67.50;;;;;;4892498;29;20426;-83
2022/06/02 12:49:26;;;;;;;11.18;3.38;;;31.90;66.40;;;;;;4882555;29;20432;-82
2022/06/02 12:52:12;;;;;;;10.80;3.15;;;32.10;67.50;;;;;;4882409;29;20040;-85
2022/06/02 12:54:58;;;;;;;11.15;4.50;;;32.20;66.60;;;;;;4879188;29;20618;-77
2022/06/02 12:58:02;;;;;;;12.40;3.78;;;32.30;67.90;;;;;;4899125;29;20496;-83
2022/06/02 13:00:38;;;;;;;11.43;4.03;;;32.20;67.10;;;;;;4892514;29;20595;-83
2022/06/02 13:03:44;;;;;;;9.43;4.00;;;32.50;67.80;;;;;;4879698;29;20533;-84
2022/06/02 13:06:32;;;;;;;8.45;3.72;;;32.70;67.10;;;;;;4903834;29;20096;-82
2022/06/02 13:09:30;;;;;;;10.02;4.07;;;32.40;66.80;;;;;;4898367;29;20108;-75
2022/06/02 13:12:20;;;;;;;9.57;3.60;;;32.30;66.90;;;;;;4888589;29;20076;-78
2022/06/02 13:15:30;;;;;;;10.50;4.20;;;32.20;67.00;;;;;;4896308;29;20436;-80
2022/06/02 13:18:16;;;;;;;10.88;3.65;;;32.10;66.30;;;;;;4888244;29;20157;-79
2022/06/02 13:21:14;;;;;;;6.80;3.30;;;32.40;65.60;;;;;;4896328;29;20056;-79
2022/06/02 13:24:03;;;;;;;9.80;3.78;;;32.70;66.00;;;;;;4893411;29;20060;-82
2022/06/02 13:26:58;;;;;;;7.95;3.25;;;32.80;65.50;;;;;;4881423;29;20048;-82
2022/06/02 13:29:59;;;;;;;11.18;3.78;;;32.80;64.80;;;;;;4890142;29;20049;-79
2022/06/02 13:32:45;;;;;;;12.40;4.53;;;32.70;65.60;;;;;;4897138;29;20112;-77
2022/06/02 13:35:44;;;;;;;9.55;3.70;;;32.40;66.20;;;;;;4897683;29;20052;-76
2022/06/02 13:38:30;;;;;;;10.05;4.20;;;32.60;65.70;;;;;;4896596;29;20100;-78
2022/06/02 13:41:34;;;;;;;9.73;3.90;;;32.50;65.80;;;;;;4897890;29;20460;-80
2022/06/02 13:44:35;;;;;;;13.60;3.47;;;32.60;66.90;;;;;;4895670;29;20396;-78
2022/06/02 13:47:36;;;;;;;8.52;2.90;;;32.30;65.60;;;;;;4897666;29;20040;-83
2022/06/02 13:50:28;;;;;;;13.88;3.65;;;32.10;66.70;;;;;;4896924;29;20092;-81
2022/06/02 13:53:10;;;;;;;11.25;3.10;;;31.90;67.30;;;;;;4897225;29;20489;-77
2022/06/02 13:59:31;;;;;;;10.82;3.20;;;31.60;67.40;;;;;;4881510;29;20047;-80
2022/06/02 14:02:20;;;;;;;8.88;3.70;;;31.40;67.80;;;;;;4852657;29;20050;-75
2022/06/02 14:04:48;;;;;;;;;;;31.30;68.90;;;;;;4866218;29;20086;-81
2022/06/02 14:07:46;;;;;;;12.30;3.60;;;31.10;69.10;;;;;;4897198;29;20339;-82
2022/06/02 14:10:41;;;;;;;11.98;4.10;;;31.10;68.10;;;;;;4897365;29;20445;-77
2022/06/02 14:13:08;;;;;;;10.43;3.30;;;31.30;68.60;;;;;;4880614;29;20396;-79
2022/06/02 14:16:10;;;;;;;7.32;3.30;;;31.80;69.30;;;;;;4880735;29;20048;-83
2022/06/02 14:19:05;;;;;;;9.43;3.47;;;32.40;67.90;;;;;;4864248;29;20057;-76
2022/06/02 14:21:49;;;;;;;10.40;3.10;;;32.70;67.80;;;;;;4858662;29;20076;-74
2022/06/02 14:24:28;;;;;;;7.43;2.45;;;33.00;66.50;;;;;;4859342;29;20050;-80
2022/06/02 14:27:04;;;;;;;16.52;3.75;;;33.00;66.80;;;;;;4859745;29;20057;-75
2022/06/02 14:29:40;;;;;;;11.77;3.15;;;32.90;66.40;;;;;;4858805;29;20049;-84
2022/06/02 14:32:11;;;;;;;9.95;2.60;;;32.60;66.10;;;;;;4858026;29;20495;-80
2022/06/02 14:34:47;;;;;;;15.98;3.50;;;32.00;68.00;;;;;;4859758;29;20415;-75
2022/06/02 14:37:30;;;;;;;16.42;4.63;;;31.40;69.40;;;;;;4858887;29;20076;-84
2022/06/02 14:40:13;;;;;;;9.10;3.08;;;31.10;70.40;;;;;;4858193;29;20493;-81
2022/06/02 14:43:05;;;;;;;9.80;3.50;;;30.80;70.10;;;;;;4859435;29;20045;-79